Terminal Aerodrome Forecast
Issued by NWS

Home | Current Version | Previous Version | Text Only | Print | Product List | Glossary On
Versions: 1 2 3 4 5 6 7 8 9 10 11 12 13 14 15 16 17 18 19
293
FTUS46 KSGX 252340
TAFONT
TAF
KONT 252340Z 2600/2706 25010G17KT P6SM SCT040
     FM260400 26006KT P6SM SCT035
     FM260900 25005KT P6SM OVC025
     FM261700 25006KT P6SM SCT025 BKN035
     FM262000 26012G20KT P6SM SCT035
     FM270400 26006KT P6SM SCT035=

USA.gov is the U.S. government's official web portal to all federal, state and local government web resources and services.